Strona główna
METAR-TAF:

METAR-TAF

Lotnisko :

Łódź, Polska

Port lotniczy Łódź-Lublinek

Szerokość geograficzna: 51-43-19N, Długość geograficzna: 019-23-53E, wysokość: 184 m

Aktualna obserwacja pogody

Raport powstał 36 minut temu, godzina 04:30 UTC
Wiatr 5 kt od zachodnio-południowy zachód, zmienny między południowo-południowy zachód i zachód
Temperatura 17°C
Wilgotność 88%
Ciśnienie 1010 hPa
Widzialność 10 km lub więcej
Brak chmur poniżej 1500 m i brak chmur cumulonimbus

METAR: EPLL 260430Z 24005KT 210V270 CAVOK 17/15 Q1010

czas: 07:06 (05:06 UTC)


TAF: brakujący

Obserwacja i prognoza pogody dla ponad 4000 lotnisk (raport METAR i TAF).

Dostępne stacje oznaczono żółtymi i czerwonymi punktami na mapie.

Najedź kursorem aby zobaczyć nazwę stacji.

Kliknij aby zobaczyć obserwacje i prognozy pogody.

Aby zmienić mapę: kliknij na zielony przycisk z czarnym krzyżykiem, aby powiększyć; na zielony przycisk z myślnikiem, aby pomniejszyć; na zielone strzałki, aby przejść do map sąsiednich.


METAR-TAF: